Terminal Aerodrome Forecast
Issued by NWS Charleston, SC

Home | Current Version | Previous Version | Text Only | Print | Product List | Glossary On
Versions: 1 2 3 4 5 6 7 8 9 10 11 12 13
000
FTUS42 KCHS 180530
TAFCHS
TAF
KCHS 180530Z 1806/1906 00000KT P6SM BKN060
     FM180900 00000KT P6SM SCT025 OVC040
      TEMPO 1811/1813 4SM MIFG
     FM181500 VRB03KT 6SM -RA SCT008 BKN030
      TEMPO 1815/1817 BKN008
     FM181800 24006KT P6SM SCT012 OVC020=

USA.gov is the U.S. government's official web portal to all federal, state and local government web resources and services.